createdAt,value
2022-09-01T00:00:03.041Z,2.00
2022-09-01T00:02:31.603Z,2.10
2022-09-01T00:04:59.088Z,1.70
2022-09-01T00:07:30.508Z,2.00
2022-09-01T00:09:59.040Z,2.23
2022-09-01T00:12:26.314Z,2.00
2022-09-01T00:14:53.762Z,1.90
2022-09-01T00:17:21.386Z,1.90
2022-09-01T00:19:48.524Z,1.83
2022-09-01T00:22:15.877Z,1.90
2022-09-01T00:24:44.296Z,2.27
2022-09-01T00:27:11.622Z,2.03
2022-09-01T00:29:43.937Z,2.00
2022-09-01T00:32:11.755Z,2.10
2022-09-01T00:34:39.102Z,1.80
2022-09-01T00:37:06.351Z,1.90
2022-09-01T00:39:33.318Z,1.90
2022-09-01T00:42:00.773Z,1.90
2022-09-01T00:44:29.696Z,1.70
2022-09-01T00:46:59.410Z,1.97
2022-09-01T00:49:39.890Z,2.00
2022-09-01T00:52:32.335Z,1.80
2022-09-01T00:55:09.005Z,1.90
2022-09-01T00:57:36.183Z,1.90
2022-09-01T01:00:11.981Z,2.00
2022-09-01T01:02:41.635Z,2.20
2022-09-01T01:05:09.100Z,2.13
2022-09-01T01:07:42.622Z,2.00
2022-09-01T01:10:15.974Z,2.10
2022-09-01T01:12:44.111Z,2.00
2022-09-01T01:15:15.420Z,2.20
2022-09-01T01:17:43.374Z,2.20
2022-09-01T01:20:33.329Z,2.10
2022-09-01T01:23:19.777Z,2.43
2022-09-01T01:25:54.086Z,2.10
2022-09-01T01:28:28.283Z,1.90
2022-09-01T01:31:03.579Z,2.60
2022-09-01T01:33:42.730Z,1.87
2022-09-01T01:36:13.746Z,2.23
2022-09-01T01:38:43.407Z,2.40
2022-09-01T01:41:12.354Z,1.90
2022-09-01T01:43:39.981Z,2.30
2022-09-01T01:46:09.685Z,2.43
2022-09-01T01:48:39.918Z,2.10
2022-09-01T01:51:07.734Z,1.90
2022-09-01T01:53:35.032Z,2.10
2022-09-01T01:56:03.041Z,1.73
2022-09-01T01:58:30.586Z,2.13
2022-09-01T02:00:59.310Z,2.20
2022-09-01T02:03:36.652Z,2.37
2022-09-01T02:06:07.299Z,2.03
2022-09-01T02:08:36.364Z,2.20
2022-09-01T02:11:05.642Z,1.90
2022-09-01T02:13:34.254Z,2.17
2022-09-01T02:16:07.760Z,2.03
2022-09-01T02:18:37.880Z,2.40
2022-09-01T02:21:12.953Z,2.33
2022-09-01T02:23:43.661Z,2.40
2022-09-01T02:26:19.354Z,2.23
2022-09-01T02:28:54.851Z,2.13
2022-09-01T02:31:23.828Z,1.80
2022-09-01T02:33:53.281Z,2.13
2022-09-01T02:36:20.955Z,2.30
2022-09-01T02:38:53.620Z,2.07
2022-09-01T02:41:25.412Z,1.80
2022-09-01T02:43:52.611Z,2.03
2022-09-01T02:46:24.265Z,1.90
2022-09-01T02:48:53.637Z,2.03
2022-09-01T02:51:25.824Z,2.27
2022-09-01T02:53:53.963Z,2.70
2022-09-01T02:56:26.864Z,2.57
2022-09-01T02:58:55.338Z,1.87
2022-09-01T03:01:29.896Z,2.40
2022-09-01T03:04:05.856Z,3.13
2022-09-01T03:06:34.574Z,2.50
2022-09-01T03:09:03.386Z,2.80
2022-09-01T03:11:32.475Z,2.57
2022-09-01T03:13:59.759Z,3.00
2022-09-01T03:16:26.843Z,2.50
2022-09-01T03:18:54.169Z,2.60
2022-09-01T03:21:22.267Z,2.83
2022-09-01T03:23:51.032Z,3.23
2022-09-01T03:26:21.373Z,3.03
2022-09-01T03:28:50.123Z,2.70
2022-09-01T03:31:18.842Z,3.00
2022-09-01T03:33:46.813Z,2.93
2022-09-01T03:36:19.618Z,3.00
2022-09-01T03:38:48.962Z,3.20
2022-09-01T03:41:18.951Z,2.90
2022-09-01T03:43:48.487Z,3.50
2022-09-01T03:46:23.196Z,3.10
2022-09-01T03:48:56.020Z,3.73
2022-09-01T03:51:25.398Z,3.50
2022-09-01T03:53:55.348Z,3.13
2022-09-01T03:56:27.915Z,2.90
2022-09-01T03:59:01.135Z,3.20
2022-09-01T04:01:34.291Z,2.90
2022-09-01T04:04:01.530Z,2.80
2022-09-01T04:06:30.935Z,3.00
2022-09-01T04:09:03.270Z,3.27
2022-09-01T04:11:30.880Z,2.90
2022-09-01T04:13:58.813Z,2.83
2022-09-01T04:16:47.725Z,2.67
2022-09-01T04:19:20.745Z,3.03
2022-09-01T04:21:56.385Z,2.63
2022-09-01T04:24:28.470Z,3.87
2022-09-01T04:27:02.405Z,3.57
2022-09-01T04:29:32.103Z,2.70
2022-09-01T04:32:13.083Z,3.03
2022-09-01T04:34:41.957Z,2.90
2022-09-01T04:37:15.261Z,2.70
2022-09-01T04:39:52.498Z,2.87
2022-09-01T04:42:24.317Z,2.70
2022-09-01T04:44:54.020Z,2.70
2022-09-01T04:47:35.516Z,2.93
2022-09-01T04:50:04.658Z,2.63
2022-09-01T04:52:32.617Z,2.90
2022-09-01T04:54:59.608Z,2.70
2022-09-01T04:57:27.914Z,2.60
2022-09-01T04:59:57.175Z,2.50
2022-09-01T05:02:27.465Z,3.13
2022-09-01T05:04:55.280Z,3.00
2022-09-01T05:07:24.421Z,3.20
2022-09-01T05:09:59.298Z,3.10
2022-09-01T05:12:28.348Z,2.90
2022-09-01T05:14:56.311Z,3.10
2022-09-01T05:17:26.361Z,3.20
2022-09-01T05:19:54.591Z,2.80
2022-09-01T05:22:23.258Z,3.00
2022-09-01T05:24:55.175Z,3.27
2022-09-01T05:27:23.064Z,3.37
2022-09-01T05:29:50.637Z,3.03
2022-09-01T05:32:17.778Z,3.10
2022-09-01T05:34:46.218Z,3.10
2022-09-01T05:37:14.801Z,2.80
2022-09-01T05:39:41.866Z,2.73
2022-09-01T05:42:09.625Z,2.53
2022-09-01T05:44:39.506Z,2.93
2022-09-01T05:47:20.870Z,2.37
2022-09-01T05:49:49.924Z,2.50
2022-09-01T05:52:17.171Z,2.13
2022-09-01T05:54:48.119Z,2.37
2022-09-01T05:57:33.722Z,2.20
2022-09-01T06:00:02.915Z,2.00
2022-09-01T06:02:31.229Z,2.10
2022-09-01T06:04:59.969Z,2.47
2022-09-01T06:07:29.471Z,2.23
2022-09-01T06:09:57.243Z,2.33
2022-09-01T06:12:25.107Z,2.10
2022-09-01T06:14:54.503Z,2.20
2022-09-01T06:17:25.430Z,2.60
2022-09-01T06:19:55.798Z,2.70
2022-09-01T06:22:24.656Z,2.80
2022-09-01T06:24:59.481Z,2.40
2022-09-01T06:27:29.629Z,2.47
2022-09-01T06:29:58.558Z,2.67
2022-09-01T06:32:26.223Z,1.83
2022-09-01T06:34:53.656Z,1.87
2022-09-01T06:37:23.138Z,2.13
2022-09-01T06:39:50.967Z,2.33
2022-09-01T06:42:19.510Z,2.30
2022-09-01T06:44:46.736Z,2.23
2022-09-01T06:47:15.677Z,2.67
2022-09-01T06:49:43.182Z,2.13
2022-09-01T07:00:30.868Z,2.00
2022-09-01T07:02:59.034Z,2.03
2022-09-01T07:08:20.019Z,2.00
2022-09-01T07:13:38.706Z,1.87
2022-09-01T07:18:58.961Z,1.90
2022-09-01T07:22:06.674Z,1.70
2022-09-01T07:24:18.259Z,1.60
2022-09-01T07:26:49.410Z,1.33
2022-09-01T07:29:17.568Z,1.50
2022-09-01T07:32:43.425Z,1.70
2022-09-01T07:34:40.637Z,1.70
2022-09-01T07:38:46.787Z,1.60
2022-09-01T07:39:56.458Z,1.40
2022-09-01T07:45:28.840Z,1.67
2022-09-01T07:47:57.578Z,1.30
2022-09-01T07:50:40.335Z,1.40
2022-09-01T07:53:18.568Z,1.70
2022-09-01T07:55:47.079Z,1.40
2022-09-01T07:58:14.602Z,1.63
2022-09-01T08:00:46.169Z,1.30
2022-09-01T08:03:14.650Z,1.50
2022-09-01T08:05:42.090Z,1.40
2022-09-01T08:08:28.756Z,1.23
2022-09-01T08:11:04.329Z,1.17
2022-09-01T08:13:34.649Z,1.25
2022-09-01T08:16:08.819Z,1.33
2022-09-01T08:18:51.591Z,1.23
2022-09-01T08:21:22.297Z,1.25
2022-09-01T08:23:50.811Z,1.50
2022-09-01T08:26:20.357Z,1.42
2022-09-01T08:28:54.898Z,1.00
2022-09-01T08:31:23.631Z,1.27
2022-09-01T08:33:51.084Z,1.42
2022-09-01T08:36:23.030Z,1.40
2022-09-01T08:38:51.612Z,1.00
2022-09-01T08:41:47.361Z,1.20
2022-09-01T08:44:45.973Z,1.02
2022-09-01T08:47:27.836Z,1.35
2022-09-01T08:49:56.346Z,1.02
2022-09-01T08:52:41.396Z,1.20
2022-09-01T08:55:26.040Z,1.17
2022-09-01T17:09:22.519Z,0.90
2022-09-01T17:12:00.204Z,1.08
2022-09-01T17:20:18.597Z,1.00
2022-09-01T17:22:55.510Z,1.27
2022-09-01T17:25:50.149Z,1.10
2022-09-01T17:28:58.972Z,1.02
2022-09-01T17:31:45.925Z,1.20
2022-09-01T17:34:50.261Z,0.77
2022-09-01T17:37:51.170Z,0.70
2022-09-01T17:40:34.874Z,1.10
2022-09-01T17:43:17.324Z,1.10
2022-09-01T17:46:08.102Z,0.98
2022-09-01T17:51:25.706Z,1.10
2022-09-01T17:54:16.578Z,0.90
2022-09-01T17:56:54.749Z,1.13
2022-09-01T17:59:47.227Z,1.00
2022-09-01T18:02:14.967Z,1.10
2022-09-01T18:04:42.112Z,1.00
2022-09-01T18:07:21.963Z,1.00
2022-09-01T18:09:55.494Z,1.30
2022-09-01T18:12:29.049Z,0.98
2022-09-01T18:15:10.848Z,1.70
2022-09-01T18:17:43.641Z,1.35
2022-09-01T18:20:32.850Z,1.10
2022-09-01T18:34:10.140Z,1.10
2022-09-01T18:36:43.505Z,1.23
2022-09-01T18:39:10.415Z,1.20
2022-09-01T18:42:17.871Z,1.10
2022-09-01T18:45:33.368Z,1.30
2022-09-01T18:48:00.525Z,1.20
2022-09-01T18:50:47.954Z,1.10
2022-09-01T18:53:34.418Z,1.20
2022-09-01T18:56:36.957Z,1.30
2022-09-01T18:59:10.146Z,1.13
2022-09-01T19:01:49.270Z,1.07
2022-09-01T19:04:23.767Z,1.17
2022-09-01T19:07:24.756Z,1.10
2022-09-01T19:16:28.971Z,1.10
2022-09-01T19:19:33.309Z,1.20
2022-09-01T19:22:00.756Z,1.10
2022-09-01T19:24:49.353Z,1.10
2022-09-01T19:27:28.603Z,1.10
2022-09-01T19:30:03.389Z,1.10
2022-09-01T19:32:33.398Z,1.33
2022-09-01T19:37:55.963Z,1.30
2022-09-01T19:49:06.114Z,1.30
2022-09-01T20:08:17.636Z,1.00
2022-09-01T20:10:51.612Z,1.00
2022-09-01T20:13:53.006Z,1.20
2022-09-01T20:16:40.349Z,1.00
2022-09-01T20:19:16.587Z,1.30
2022-09-01T20:21:48.019Z,1.10
2022-09-01T20:24:27.382Z,1.13
2022-09-01T20:26:57.227Z,1.40
2022-09-01T20:29:43.546Z,1.33
2022-09-01T20:32:22.129Z,1.07
2022-09-01T20:34:55.363Z,1.20
2022-09-01T20:37:33.165Z,1.03
2022-09-01T20:40:05.988Z,0.97
2022-09-01T20:42:51.182Z,1.10
2022-09-01T20:45:23.533Z,1.10
2022-09-01T20:48:00.596Z,1.00
2022-09-01T20:50:43.558Z,1.00
2022-09-01T20:53:32.102Z,1.20
2022-09-01T20:56:20.029Z,1.10
2022-09-01T20:58:55.278Z,1.20
2022-09-01T21:01:48.744Z,1.37
2022-09-01T21:04:49.182Z,1.20
2022-09-01T21:07:22.017Z,1.20
2022-09-01T21:09:53.034Z,0.90
2022-09-01T21:12:34.213Z,0.90
2022-09-01T21:15:15.669Z,0.90
2022-09-01T21:18:06.835Z,1.10
2022-09-01T21:20:51.834Z,0.93
2022-09-01T21:23:21.073Z,1.30
2022-09-01T21:25:48.919Z,0.90
2022-09-01T21:28:20.309Z,0.97
2022-09-01T21:30:54.453Z,0.93
2022-09-01T21:33:22.988Z,1.30
2022-09-01T21:35:50.621Z,1.37
2022-09-01T21:38:18.367Z,1.00
2022-09-01T21:40:46.725Z,1.17
2022-09-01T21:43:21.352Z,1.00
2022-09-01T21:45:48.777Z,1.10
2022-09-01T21:48:16.515Z,1.00
2022-09-01T21:50:43.917Z,1.10
2022-09-01T21:53:14.002Z,0.97
2022-09-01T21:55:41.279Z,1.17
2022-09-01T21:58:09.420Z,1.10
2022-09-01T22:00:43.378Z,1.03
2022-09-01T22:03:11.761Z,1.00
2022-09-01T22:05:44.860Z,1.13
2022-09-01T22:08:14.925Z,1.27
2022-09-01T22:10:44.995Z,1.00
2022-09-01T22:13:13.257Z,1.00
2022-09-01T22:15:46.050Z,1.03
2022-09-01T22:18:14.137Z,1.07
2022-09-01T22:20:41.941Z,1.10
2022-09-01T22:23:09.066Z,0.90
2022-09-01T22:25:40.461Z,1.00
2022-09-01T22:28:07.538Z,1.20
2022-09-01T22:30:34.622Z,1.00
2022-09-01T22:33:02.755Z,1.00
2022-09-01T22:35:29.890Z,1.13
2022-09-01T22:37:56.959Z,0.80
2022-09-01T22:40:24.118Z,1.20
2022-09-01T22:42:52.507Z,0.93
2022-09-01T22:45:19.594Z,1.10
2022-09-01T22:47:46.722Z,0.80
2022-09-01T22:50:13.722Z,0.83
2022-09-01T22:52:40.990Z,1.13
2022-09-01T22:55:09.346Z,1.10
2022-09-01T22:57:37.030Z,1.07
2022-09-01T23:00:21.396Z,1.20
2022-09-01T23:02:48.547Z,0.90
2022-09-01T23:05:16.565Z,1.10
2022-09-01T23:07:43.450Z,1.20
2022-09-01T23:10:10.673Z,1.10
2022-09-01T23:12:37.784Z,0.90
2022-09-01T23:15:05.968Z,1.10
2022-09-01T23:17:33.212Z,1.17
2022-09-01T23:20:01.219Z,0.90
2022-09-01T23:22:28.614Z,1.03
2022-09-01T23:24:55.607Z,1.00
2022-09-01T23:27:22.620Z,1.30
2022-09-01T23:29:49.757Z,1.20
2022-09-01T23:32:16.687Z,1.00
2022-09-01T23:34:43.591Z,1.10
2022-09-01T23:37:10.906Z,1.07
2022-09-01T23:39:37.860Z,1.20
2022-09-01T23:42:05.142Z,1.17
2022-09-01T23:44:32.217Z,1.10
2022-09-01T23:46:59.122Z,1.00
2022-09-01T23:49:26.025Z,1.00
2022-09-01T23:51:54.566Z,1.00
2022-09-01T23:54:22.206Z,1.10
2022-09-01T23:56:49.469Z,1.10
2022-09-01T23:59:16.758Z,1.00
